createdAt,value
2022-11-02T00:00:31.557Z,0.95
2022-11-02T00:02:59.415Z,0.90
2022-11-02T00:05:27.911Z,0.63
2022-11-02T00:07:56.407Z,0.70
2022-11-02T00:10:25.500Z,0.63
2022-11-02T00:12:54.123Z,0.47
2022-11-02T00:15:22.116Z,0.47
2022-11-02T00:17:56.363Z,0.75
2022-11-02T00:20:26.227Z,0.52
2022-11-02T00:22:56.645Z,0.60
2022-11-02T00:25:26.296Z,0.80
2022-11-02T00:27:54.392Z,0.65
2022-11-02T00:30:22.487Z,0.43
2022-11-02T00:32:52.030Z,0.70
2022-11-02T00:35:19.848Z,0.85
2022-11-02T00:37:47.631Z,0.50
2022-11-02T00:40:15.436Z,0.40
2022-11-02T00:42:43.196Z,0.60
2022-11-02T00:45:11.476Z,0.47
2022-11-02T00:47:39.254Z,0.52
2022-11-02T00:50:09.647Z,0.25
2022-11-02T00:52:39.691Z,0.50
2022-11-02T00:55:08.885Z,0.55
2022-11-02T00:57:36.899Z,0.65
2022-11-02T01:00:05.246Z,0.55
2022-11-02T01:02:34.026Z,0.60
2022-11-02T01:05:01.895Z,0.40
2022-11-02T01:07:31.064Z,0.30
2022-11-02T01:09:58.905Z,0.30
2022-11-02T01:12:27.251Z,0.35
2022-11-02T01:14:55.013Z,0.47
2022-11-02T01:17:22.861Z,0.40
2022-11-02T01:19:51.911Z,0.63
2022-11-02T01:22:19.664Z,0.40
2022-11-02T01:24:48.831Z,0.50
2022-11-02T01:27:16.640Z,0.40
2022-11-02T01:29:44.421Z,0.45
2022-11-02T01:32:12.213Z,0.60
2022-11-02T01:34:40.020Z,0.60
2022-11-02T01:37:07.854Z,0.43
2022-11-02T01:39:35.610Z,0.40
2022-11-02T01:42:05.168Z,0.38
2022-11-02T01:44:35.756Z,0.45
2022-11-02T01:47:15.122Z,0.50
2022-11-02T01:49:46.477Z,0.32
2022-11-02T01:52:17.740Z,0.40
2022-11-02T01:57:20.628Z,0.35
2022-11-02T01:59:53.717Z,0.40
2022-11-02T02:02:24.214Z,0.30
2022-11-02T02:04:56.678Z,0.45
2022-11-02T02:07:27.216Z,0.43
2022-11-02T02:09:56.528Z,0.63
2022-11-02T02:12:26.585Z,0.38
2022-11-02T02:14:54.747Z,0.30
2022-11-02T02:17:32.840Z,0.47
2022-11-02T02:20:08.903Z,0.30
2022-11-02T02:23:03.027Z,0.55
2022-11-02T02:26:01.736Z,0.50
2022-11-02T02:28:41.178Z,0.30
2022-11-02T02:31:15.565Z,0.38
2022-11-02T02:33:49.695Z,0.68
2022-11-02T02:36:25.440Z,0.30
2022-11-02T02:39:02.017Z,0.32
2022-11-02T02:41:38.472Z,0.52
2022-11-02T02:44:12.444Z,1.15
2022-11-02T02:46:46.623Z,0.55
2022-11-02T02:49:19.476Z,0.60
2022-11-02T02:51:48.319Z,0.75
2022-11-02T02:54:20.125Z,0.47
2022-11-02T02:56:51.544Z,1.38
2022-11-02T02:59:24.492Z,0.55
2022-11-02T03:01:52.826Z,0.30
2022-11-02T03:04:20.787Z,0.40
2022-11-02T03:06:53.104Z,0.68
2022-11-02T03:09:28.853Z,0.98
2022-11-02T03:12:13.033Z,0.32
2022-11-02T03:14:51.047Z,0.98
2022-11-02T03:17:21.443Z,0.50
2022-11-02T03:19:54.340Z,0.47
2022-11-02T03:22:28.389Z,0.40
2022-11-02T03:25:01.378Z,0.32
2022-11-02T03:27:39.467Z,0.80
2022-11-02T03:30:13.858Z,0.38
2022-11-02T03:32:49.687Z,0.30
2022-11-02T03:35:20.283Z,0.43
2022-11-02T03:37:53.656Z,0.75
2022-11-02T03:40:26.968Z,0.38
2022-11-02T03:42:55.756Z,0.22
2022-11-02T03:45:28.019Z,0.32
2022-11-02T03:48:01.109Z,0.60
2022-11-02T03:50:29.056Z,0.43
2022-11-02T03:53:02.340Z,0.32
2022-11-02T03:55:34.249Z,0.40
2022-11-02T03:58:02.285Z,0.32
2022-11-02T04:00:35.848Z,0.40
2022-11-02T04:03:04.367Z,0.50
2022-11-02T04:05:34.463Z,0.77
2022-11-02T04:08:20.404Z,0.20
2022-11-02T04:11:05.905Z,0.47
2022-11-02T04:13:51.193Z,0.38
2022-11-02T04:16:25.015Z,0.40
2022-11-02T04:19:27.876Z,0.82
2022-11-02T04:22:14.041Z,0.38
2022-11-02T04:25:00.303Z,0.40
2022-11-02T04:27:28.192Z,0.45
2022-11-02T04:29:56.085Z,0.45
2022-11-02T04:32:42.860Z,0.50
2022-11-02T04:35:11.114Z,0.40
2022-11-02T04:38:00.962Z,0.50
2022-11-02T04:40:29.190Z,0.47
2022-11-02T04:42:57.144Z,0.52
2022-11-02T04:45:25.087Z,0.30
2022-11-02T04:47:54.242Z,0.45
2022-11-02T04:50:22.039Z,0.40
2022-11-02T04:52:57.160Z,0.50
2022-11-02T04:55:25.239Z,0.50
2022-11-02T04:57:53.065Z,0.93
2022-11-02T05:00:22.372Z,0.35
2022-11-02T05:02:51.043Z,0.28
2022-11-02T05:05:20.187Z,0.35
2022-11-02T05:07:47.971Z,0.75
2022-11-02T05:10:15.867Z,0.50
2022-11-02T05:12:43.659Z,0.57
2022-11-02T05:15:11.748Z,0.70
2022-11-02T05:17:39.535Z,0.40
2022-11-02T05:20:08.703Z,0.40
2022-11-02T05:22:37.922Z,0.82
2022-11-02T05:25:06.333Z,0.50
2022-11-02T05:27:34.103Z,0.40
2022-11-02T05:30:01.885Z,0.45
2022-11-02T05:32:29.657Z,0.30
2022-11-02T05:34:57.409Z,0.52
2022-11-02T05:37:25.189Z,0.70
2022-11-02T05:39:54.285Z,0.63
2022-11-02T05:42:22.123Z,0.73
2022-11-02T05:44:49.892Z,0.55
2022-11-02T05:47:17.840Z,0.50
2022-11-02T05:49:45.619Z,0.57
2022-11-02T05:52:13.570Z,0.52
2022-11-02T05:54:41.329Z,0.30
2022-11-02T05:57:10.432Z,0.50
2022-11-02T05:59:38.244Z,0.57
2022-11-02T06:02:06.050Z,0.52
2022-11-02T06:04:33.804Z,0.45
2022-11-02T06:07:01.600Z,0.25
2022-11-02T06:09:29.378Z,0.47
2022-11-02T06:11:57.329Z,0.35
2022-11-02T06:14:26.612Z,0.77
2022-11-02T06:16:54.360Z,0.60
2022-11-02T06:19:22.113Z,0.50
2022-11-02T06:21:49.940Z,0.85
2022-11-02T06:24:17.717Z,0.40
2022-11-02T06:26:49.334Z,0.20
2022-11-02T06:29:17.104Z,0.38
2022-11-02T06:31:46.278Z,0.50
2022-11-02T06:34:14.060Z,0.57
2022-11-02T06:36:41.827Z,0.30
2022-11-02T06:39:09.610Z,0.68
2022-11-02T06:41:37.438Z,0.45
2022-11-02T06:44:05.632Z,0.40
2022-11-02T06:46:33.428Z,0.65
2022-11-02T06:49:02.853Z,1.10
2022-11-02T06:51:30.618Z,0.52
2022-11-02T06:53:58.399Z,0.63
2022-11-02T06:56:26.158Z,0.40
2022-11-02T06:58:53.924Z,0.63
2022-11-02T07:01:21.834Z,0.30
2022-11-02T07:03:49.724Z,0.20
2022-11-02T07:06:18.837Z,0.25
2022-11-02T07:08:46.606Z,0.82
2022-11-02T07:11:15.922Z,0.50
2022-11-02T07:13:44.040Z,0.20
2022-11-02T07:16:11.953Z,0.20
2022-11-02T07:18:39.815Z,0.20
2022-11-02T07:21:07.977Z,0.73
2022-11-02T07:23:37.193Z,0.30
2022-11-02T07:26:05.723Z,0.30
2022-11-02T07:28:33.514Z,0.40
2022-11-02T08:01:19.330Z,0.35
2022-11-02T08:03:47.804Z,0.55
2022-11-02T08:06:15.604Z,0.82
2022-11-02T08:08:43.424Z,0.50
2022-11-02T08:11:11.224Z,0.43
2022-11-02T08:13:39.487Z,0.82
2022-11-02T08:16:07.750Z,0.57
2022-11-02T08:18:36.864Z,0.40
2022-11-02T08:21:05.474Z,0.70
2022-11-02T08:23:33.283Z,0.38
2022-11-02T08:26:01.176Z,0.50
2022-11-02T08:28:32.037Z,0.32
2022-11-02T08:31:00.300Z,0.52
2022-11-02T08:33:28.872Z,0.45
2022-11-02T08:36:02.683Z,0.60
2022-11-02T08:38:30.595Z,0.57
2022-11-02T08:40:58.460Z,0.80
2022-11-02T08:43:26.273Z,0.50
2022-11-02T08:48:45.948Z,0.73
2022-11-02T08:51:15.061Z,0.63
2022-11-02T08:53:47.092Z,0.43
2022-11-02T08:56:18.184Z,0.55
2022-11-02T08:58:46.060Z,0.50
2022-11-02T09:01:13.977Z,0.57
2022-11-02T09:03:41.835Z,0.68
2022-11-02T09:06:09.628Z,0.30
2022-11-02T09:08:38.749Z,0.50
2022-11-02T09:11:06.894Z,0.40
2022-11-02T09:13:34.797Z,0.30
2022-11-02T09:16:02.773Z,0.52
2022-11-02T09:18:31.039Z,0.40
2022-11-02T09:21:02.973Z,0.93
2022-11-02T09:23:31.173Z,0.65
2022-11-02T09:26:00.958Z,0.63
2022-11-02T09:28:29.100Z,0.25
2022-11-02T09:30:56.939Z,0.50
2022-11-02T09:33:24.712Z,0.85
2022-11-02T09:35:52.692Z,0.38
2022-11-02T09:38:20.484Z,0.75
2022-11-02T09:40:56.796Z,0.32
2022-11-02T09:43:38.042Z,0.40
2022-11-02T09:46:08.930Z,0.60
2022-11-02T09:48:41.780Z,0.40
2022-11-02T09:51:12.933Z,0.73
2022-11-02T09:56:15.341Z,0.30
2022-11-02T09:58:46.012Z,0.30
2022-11-02T10:01:25.228Z,0.40
2022-11-02T10:04:03.270Z,0.70
2022-11-02T10:06:32.471Z,0.63
2022-11-02T10:09:10.166Z,0.30
2022-11-02T10:11:48.513Z,0.17
2022-11-02T10:14:22.791Z,0.38
2022-11-02T10:16:56.407Z,0.70
2022-11-02T10:19:26.412Z,0.40
2022-11-02T10:21:59.440Z,0.40
2022-11-02T10:24:34.150Z,0.30
2022-11-02T10:27:08.022Z,0.38
2022-11-02T10:29:48.385Z,0.75
2022-11-02T10:32:17.148Z,0.15
2022-11-02T10:34:58.573Z,0.20
2022-11-02T10:37:44.765Z,0.57
2022-11-02T10:40:26.968Z,0.30
2022-11-02T10:43:06.830Z,0.40
2022-11-02T10:45:58.539Z,0.50
2022-11-02T10:48:34.372Z,0.65
2022-11-02T10:51:09.607Z,0.20
2022-11-02T10:53:42.426Z,0.30
2022-11-02T10:56:18.707Z,0.32
2022-11-02T10:58:52.257Z,0.45
2022-11-02T11:01:21.503Z,0.40
2022-11-02T11:03:57.865Z,0.40
2022-11-02T11:06:27.680Z,0.30
2022-11-02T11:09:00.930Z,0.38
2022-11-02T11:11:31.874Z,0.60
2022-11-02T11:19:51.387Z,0.38
2022-11-02T11:22:28.231Z,0.30
2022-11-02T11:25:26.016Z,0.55
2022-11-02T11:27:57.397Z,0.55
2022-11-02T11:30:53.960Z,0.40
2022-11-02T11:33:20.359Z,0.43
2022-11-02T11:35:50.555Z,0.35
2022-11-02T11:38:20.587Z,0.30
2022-11-02T11:40:53.683Z,0.30
2022-11-02T11:43:24.267Z,0.57
2022-11-02T11:46:04.893Z,0.20
2022-11-02T11:48:40.181Z,0.20
2022-11-02T11:51:26.628Z,0.10
2022-11-02T11:54:22.146Z,0.20
2022-11-02T11:56:51.564Z,0.32
2022-11-02T11:59:22.481Z,0.17
2022-11-02T12:01:52.409Z,0.10
2022-11-02T12:04:37.075Z,0.38
2022-11-02T12:07:32.851Z,0.40
2022-11-02T12:10:14.526Z,0.08
2022-11-02T12:12:57.180Z,0.30
2022-11-02T12:15:39.579Z,0.85
2022-11-02T12:18:22.942Z,0.20
2022-11-02T12:21:05.100Z,0.15
2022-11-02T12:24:06.233Z,0.20
2022-11-02T12:26:48.910Z,0.30
2022-11-02T12:29:44.230Z,0.20
2022-11-02T12:32:24.850Z,0.17
2022-11-02T12:35:28.835Z,0.77
2022-11-02T12:38:10.168Z,0.10
2022-11-02T12:40:48.881Z,0.20
2022-11-02T12:43:38.328Z,0.22
2022-11-02T12:46:26.201Z,0.30
2022-11-02T12:49:04.010Z,0.20
2022-11-02T12:51:36.144Z,0.20
2022-11-02T12:54:11.195Z,0.13
2022-11-02T12:56:46.979Z,0.20
2022-11-02T12:59:19.729Z,0.43
2022-11-02T13:01:52.868Z,0.20
2022-11-02T13:04:26.157Z,0.38
2022-11-02T13:07:02.734Z,0.40
2022-11-02T13:09:37.671Z,0.45
2022-11-02T13:12:10.314Z,0.20
2022-11-02T13:14:42.051Z,0.25
2022-11-02T13:17:16.128Z,0.20
2022-11-02T13:19:49.854Z,0.13
2022-11-02T13:22:20.985Z,0.30
2022-11-02T13:27:36.480Z,0.20
2022-11-02T13:30:06.625Z,0.25
2022-11-02T13:32:37.833Z,0.20
2022-11-02T13:37:39.017Z,0.40
2022-11-02T13:40:16.667Z,0.10
2022-11-02T13:43:17.516Z,0.20
2022-11-02T13:46:14.716Z,0.32
2022-11-02T13:48:55.897Z,0.30
2022-11-02T13:51:30.216Z,0.50
2022-11-02T13:54:02.457Z,0.40
2022-11-02T13:56:32.391Z,0.10
2022-11-02T13:59:03.670Z,0.32
2022-11-02T14:01:33.867Z,0.20
2022-11-02T14:04:05.618Z,0.30
2022-11-02T14:06:44.404Z,0.20
2022-11-02T14:09:30.669Z,0.17
2022-11-02T14:12:29.020Z,0.30
2022-11-02T14:15:48.624Z,0.40
2022-11-02T14:18:32.481Z,0.47
2022-11-02T14:21:21.316Z,0.20
2022-11-02T14:23:49.171Z,0.13
2022-11-02T14:26:34.413Z,0.20
2022-11-02T14:29:29.782Z,0.20
2022-11-02T14:32:02.347Z,0.30
2022-11-02T14:34:50.514Z,0.20
2022-11-02T14:37:34.273Z,0.15
2022-11-02T14:40:12.002Z,0.30
2022-11-02T14:42:59.164Z,0.20
2022-11-02T14:45:42.871Z,0.30
2022-11-02T14:48:16.741Z,0.40
2022-11-02T14:50:45.487Z,0.20
2022-11-02T14:53:24.432Z,0.30
2022-11-02T14:55:54.919Z,0.20
2022-11-02T14:58:26.154Z,0.15
2022-11-02T15:01:00.577Z,0.10
2022-11-02T15:03:36.577Z,0.20
2022-11-02T15:06:06.874Z,0.25
2022-11-02T15:08:37.130Z,0.10
2022-11-02T15:11:41.931Z,0.30
2022-11-02T15:14:43.351Z,0.50
2022-11-02T15:20:30.227Z,0.20
2022-11-02T15:23:08.828Z,0.20
2022-11-02T15:25:40.520Z,0.28
2022-11-02T15:28:12.779Z,0.40
2022-11-02T15:30:45.612Z,0.30
2022-11-02T15:33:20.405Z,0.13
2022-11-02T15:35:54.156Z,0.25
2022-11-02T15:38:33.780Z,0.38
2022-11-02T15:41:22.259Z,0.28
2022-11-02T15:44:10.119Z,0.40
2022-11-02T15:46:49.763Z,0.40
2022-11-02T15:49:31.277Z,0.35
2022-11-02T15:52:08.486Z,0.30
2022-11-02T15:54:52.707Z,0.20
2022-11-02T15:57:31.329Z,0.30
2022-11-02T16:00:10.317Z,0.30
2022-11-02T16:02:41.201Z,0.30
2022-11-02T16:05:20.616Z,0.20
2022-11-02T16:10:40.391Z,0.47
2022-11-02T16:13:17.031Z,0.32
2022-11-02T16:15:45.555Z,0.22
2022-11-02T16:18:27.378Z,0.75
2022-11-02T16:20:57.125Z,0.50
2022-11-02T16:23:29.323Z,0.30
2022-11-02T16:25:59.746Z,0.38
2022-11-02T16:28:29.695Z,0.80
2022-11-02T16:31:13.527Z,1.15
2022-11-02T16:33:45.692Z,0.60
2022-11-02T16:36:16.510Z,0.50
2022-11-02T16:38:53.374Z,0.55
2022-11-02T16:41:21.649Z,1.00
2022-11-02T16:43:51.114Z,1.10
2022-11-02T16:46:28.842Z,1.15
2022-11-02T16:49:15.192Z,1.35
2022-11-02T16:51:49.721Z,1.77
2022-11-02T16:54:31.395Z,1.70
2022-11-02T16:57:07.178Z,1.50
2022-11-02T16:59:46.730Z,1.73
2022-11-02T17:02:15.945Z,1.30
2022-11-02T17:04:46.298Z,1.30
2022-11-02T17:07:18.549Z,1.95
2022-11-02T17:09:52.978Z,2.00
2022-11-02T17:12:23.288Z,1.98
2022-11-02T17:14:51.600Z,2.42
2022-11-02T17:17:33.372Z,2.13
2022-11-02T17:20:09.757Z,1.50
2022-11-02T17:22:39.324Z,1.92
2022-11-02T17:25:19.866Z,1.70
2022-11-02T17:27:48.072Z,2.17
2022-11-02T17:30:41.436Z,1.85
2022-11-02T17:33:10.866Z,1.90
2022-11-02T17:35:46.080Z,1.52
2022-11-02T17:38:14.182Z,1.20
2022-11-02T17:40:43.529Z,1.52
2022-11-02T17:43:10.512Z,1.58
2022-11-02T17:45:39.059Z,1.77
2022-11-02T17:48:09.677Z,1.95
2022-11-02T17:50:39.270Z,1.35
2022-11-02T17:53:10.745Z,1.60
2022-11-02T17:55:39.464Z,1.50
2022-11-02T17:58:08.980Z,1.10
2022-11-02T18:00:37.706Z,1.02
2022-11-02T18:03:19.142Z,1.02
2022-11-02T18:05:50.144Z,0.70
2022-11-02T18:08:19.806Z,1.00
2022-11-02T18:10:49.102Z,0.70
2022-11-02T18:13:20.115Z,0.60
2022-11-02T18:15:48.202Z,0.90
2022-11-02T18:18:16.051Z,0.63
2022-11-02T18:20:43.810Z,0.63
2022-11-02T18:23:16.296Z,0.60
2022-11-02T18:25:44.325Z,1.08
2022-11-02T18:28:12.078Z,1.20
2022-11-02T18:30:43.269Z,0.45
2022-11-02T18:35:43.200Z,0.77
2022-11-02T18:38:11.522Z,0.90
2022-11-02T18:40:39.330Z,1.10
2022-11-02T18:43:07.491Z,1.35
2022-11-02T18:45:35.666Z,1.70
2022-11-02T18:48:05.272Z,1.30
2022-11-02T18:50:33.310Z,1.33
2022-11-02T18:53:01.155Z,1.35
2022-11-02T18:55:28.965Z,1.48
2022-11-02T18:57:56.920Z,1.08
2022-11-02T19:00:24.904Z,1.80
2022-11-02T19:02:52.818Z,1.95
2022-11-02T19:05:39.809Z,1.15
2022-11-02T19:08:25.351Z,1.00
2022-11-02T19:10:53.266Z,0.90
2022-11-02T19:13:21.145Z,0.68
2022-11-02T19:15:49.415Z,1.63
2022-11-02T19:18:17.242Z,1.25
2022-11-02T19:20:46.401Z,0.88
2022-11-02T19:23:14.194Z,1.30
2022-11-02T19:25:41.982Z,1.15
2022-11-02T19:28:09.790Z,1.00
2022-11-02T19:30:38.666Z,1.50
2022-11-02T19:33:06.769Z,1.20
2022-11-02T19:35:35.601Z,1.10
2022-11-02T19:38:04.742Z,1.10
2022-11-02T19:40:33.721Z,1.10
2022-11-02T19:43:01.525Z,1.23
2022-11-02T19:45:29.340Z,1.27
2022-11-02T19:47:57.116Z,1.17
2022-11-02T19:50:24.917Z,1.13
2022-11-02T19:52:52.684Z,1.13
2022-11-02T19:55:25.096Z,1.40
2022-11-02T19:57:52.870Z,1.35
2022-11-02T20:00:20.716Z,2.25
2022-11-02T20:02:50.894Z,2.00
2022-11-02T20:05:18.733Z,2.20
2022-11-02T20:07:46.518Z,2.05
2022-11-02T20:10:14.570Z,2.20
2022-11-02T20:12:43.659Z,2.58
2022-11-02T20:15:12.086Z,2.55
2022-11-02T20:17:58.446Z,1.73
2022-11-02T20:20:27.971Z,2.50
2022-11-02T20:22:55.837Z,2.00
2022-11-02T20:25:25.518Z,3.00
2022-11-02T20:27:54.793Z,2.97
2022-11-02T20:30:23.055Z,1.98
2022-11-02T20:32:50.836Z,1.90
2022-11-02T20:35:22.797Z,2.20
2022-11-02T20:37:50.633Z,2.20
2022-11-02T20:40:18.667Z,2.28
2022-11-02T20:42:48.636Z,1.27
2022-11-02T20:45:18.610Z,1.27
2022-11-02T20:47:46.397Z,1.70
2022-11-02T20:50:16.652Z,1.40
2022-11-02T20:52:46.553Z,1.38
2022-11-02T20:55:14.346Z,1.38
2022-11-02T20:57:42.188Z,1.08
2022-11-02T21:00:11.917Z,1.00
2022-11-02T21:02:41.129Z,0.82
2022-11-02T21:05:09.775Z,1.10
2022-11-02T21:07:37.589Z,0.82
2022-11-02T21:10:06.465Z,0.55
2022-11-02T21:13:06.915Z,0.60
2022-11-02T21:15:35.983Z,1.20
2022-11-02T21:18:05.482Z,0.95
2022-11-02T21:20:34.861Z,0.93
2022-11-02T21:23:03.225Z,0.95
2022-11-02T21:25:32.175Z,0.93
2022-11-02T21:28:00.279Z,0.98
2022-11-02T21:30:30.816Z,1.05
2022-11-02T21:32:58.899Z,0.95
2022-11-02T21:35:28.101Z,0.80
2022-11-02T21:38:01.303Z,0.73
2022-11-02T21:40:31.691Z,0.88
2022-11-02T21:42:59.592Z,0.77
2022-11-02T21:45:27.453Z,0.77
2022-11-02T21:47:55.225Z,0.98
2022-11-02T21:50:22.997Z,1.10
2022-11-02T21:52:52.112Z,0.98
2022-11-02T21:55:20.107Z,0.93
2022-11-02T21:57:47.852Z,0.70
2022-11-02T22:00:16.779Z,0.40
2022-11-02T22:02:43.644Z,1.00
2022-11-02T22:05:31.471Z,1.00
2022-11-02T22:08:18.107Z,0.98
2022-11-02T22:10:45.909Z,0.82
2022-11-02T22:13:31.387Z,0.82
2022-11-02T22:15:59.161Z,0.75
2022-11-02T22:18:26.929Z,0.80
2022-11-02T22:20:55.189Z,0.82
2022-11-02T22:23:24.376Z,1.25
2022-11-02T22:25:58.936Z,1.05
2022-11-02T22:28:30.530Z,0.70
2022-11-02T22:30:59.025Z,1.33
2022-11-02T22:33:27.146Z,1.33
2022-11-02T22:35:55.063Z,1.15
2022-11-02T22:38:41.841Z,0.70
2022-11-02T22:41:09.656Z,0.60
2022-11-02T22:43:37.458Z,1.02
2022-11-02T22:46:06.992Z,0.70
2022-11-02T22:48:35.686Z,0.55
2022-11-02T22:51:05.885Z,0.70
2022-11-02T22:53:35.288Z,0.70
2022-11-02T22:56:07.560Z,0.90
2022-11-02T22:58:36.458Z,0.70
2022-11-02T23:01:05.306Z,1.02
2022-11-02T23:03:34.008Z,0.83
2022-11-02T23:06:02.437Z,1.38
2022-11-02T23:08:31.018Z,1.05
2022-11-02T23:11:18.812Z,1.17
2022-11-02T23:13:48.687Z,1.67
2022-11-02T23:16:23.864Z,0.40
2022-11-02T23:19:20.310Z,0.80
2022-11-02T23:25:02.090Z,0.77
2022-11-02T23:27:32.443Z,0.85
2022-11-02T23:30:17.937Z,0.85
2022-11-02T23:32:45.798Z,0.88
2022-11-02T23:35:31.101Z,0.60
2022-11-02T23:38:04.076Z,0.85
2022-11-02T23:40:33.447Z,0.73
2022-11-02T23:43:03.125Z,0.77
2022-11-02T23:45:31.085Z,0.60
2022-11-02T23:48:00.530Z,0.77
2022-11-02T23:50:48.862Z,0.85
2022-11-02T23:53:35.734Z,0.50
2022-11-02T23:56:22.027Z,1.10
2022-11-02T23:59:06.116Z,0.80
